sensor_id;sensor_type;location;lat;lon;timestamp;temperature;humidity
45735;DHT22;31446;49.632;8.328;2023-06-22T00:09:33;23.70;99.90
45735;DHT22;31446;49.632;8.328;2023-06-22T00:24:39;23.60;99.90
45735;DHT22;31446;49.632;8.328;2023-06-22T00:39:46;23.60;99.90
45735;DHT22;31446;49.632;8.328;2023-06-22T00:54:52;23.60;99.90
45735;DHT22;31446;49.632;8.328;2023-06-22T01:10:05;23.50;99.90
45735;DHT22;31446;49.632;8.328;2023-06-22T01:25:19;21.40;99.90
45735;DHT22;31446;49.632;8.328;2023-06-22T01:40:26;21.20;99.90
45735;DHT22;31446;49.632;8.328;2023-06-22T01:55:32;21.20;99.90
45735;DHT22;31446;49.632;8.328;2023-06-22T02:10:40;21.30;99.90
45735;DHT22;31446;49.632;8.328;2023-06-22T02:25:47;21.20;99.90
45735;DHT22;31446;49.632;8.328;2023-06-22T02:40:54;21.00;99.90
45735;DHT22;31446;49.632;8.328;2023-06-22T02:56:01;21.00;99.90
45735;DHT22;31446;49.632;8.328;2023-06-22T03:11:08;20.80;99.90
45735;DHT22;31446;49.632;8.328;2023-06-22T03:26:17;20.70;99.90
45735;DHT22;31446;49.632;8.328;2023-06-22T03:41:23;20.70;99.90
45735;DHT22;31446;49.632;8.328;2023-06-22T03:56:29;20.60;99.90
45735;DHT22;31446;49.632;8.328;2023-06-22T04:11:35;20.80;99.90
45735;DHT22;31446;49.632;8.328;2023-06-22T04:26:41;21.10;99.90
45735;DHT22;31446;49.632;8.328;2023-06-22T04:41:50;21.50;99.90
45735;DHT22;31446;49.632;8.328;2023-06-22T04:56:58;21.70;99.90
45735;DHT22;31446;49.632;8.328;2023-06-22T05:12:05;23.20;99.90
45735;DHT22;31446;49.632;8.328;2023-06-22T05:27:12;23.50;99.90
45735;DHT22;31446;49.632;8.328;2023-06-22T05:42:19;24.20;99.90
45735;DHT22;31446;49.632;8.328;2023-06-22T05:57:26;24.30;99.90
45735;DHT22;31446;49.632;8.328;2023-06-22T06:12:32;23.60;99.90
45735;DHT22;31446;49.632;8.328;2023-06-22T06:43:24;24.50;99.90
45735;DHT22;31446;49.632;8.328;2023-06-22T06:58:31;25.30;99.90
45735;DHT22;31446;49.632;8.328;2023-06-22T07:13:37;25.80;99.90
45735;DHT22;31446;49.632;8.328;2023-06-22T07:28:43;25.80;99.90
45735;DHT22;31446;49.632;8.328;2023-06-22T07:43:50;26.00;99.90
45735;DHT22;31446;49.632;8.328;2023-06-22T07:58:56;26.50;99.90
45735;DHT22;31446;49.632;8.328;2023-06-22T08:14:05;26.90;99.90
45735;DHT22;31446;49.632;8.328;2023-06-22T08:29:11;27.50;99.90
45735;DHT22;31446;49.632;8.328;2023-06-22T08:44:18;28.30;99.90
45735;DHT22;31446;49.632;8.328;2023-06-22T08:59:26;29.20;99.90
45735;DHT22;31446;49.632;8.328;2023-06-22T09:14:33;29.20;99.90
45735;DHT22;31446;49.632;8.328;2023-06-22T09:29:39;29.30;99.90
45735;DHT22;31446;49.632;8.328;2023-06-22T09:44:48;30.40;99.90
45735;DHT22;31446;49.632;8.328;2023-06-22T09:59:55;30.80;99.90
45735;DHT22;31446;49.632;8.328;2023-06-22T10:15:03;30.90;99.90
45735;DHT22;31446;49.632;8.328;2023-06-22T10:30:13;31.50;99.90
45735;DHT22;31446;49.632;8.328;2023-06-22T10:45:20;31.90;99.90
45735;DHT22;31446;49.632;8.328;2023-06-22T11:00:26;32.60;99.90
45735;DHT22;31446;49.632;8.328;2023-06-22T11:15:33;33.20;99.90
45735;DHT22;31446;49.632;8.328;2023-06-22T11:30:40;33.30;99.50
45735;DHT22;31446;49.632;8.328;2023-06-22T11:45:46;33.60;97.70
45735;DHT22;31446;49.632;8.328;2023-06-22T12:00:53;34.40;97.20
45735;DHT22;31446;49.632;8.328;2023-06-22T12:16:00;33.90;96.90
45735;DHT22;31446;49.632;8.328;2023-06-22T12:31:06;34.80;96.50
45735;DHT22;31446;49.632;8.328;2023-06-22T12:46:13;34.30;95.60
45735;DHT22;31446;49.632;8.328;2023-06-22T13:01:21;35.60;94.80
45735;DHT22;31446;49.632;8.328;2023-06-22T13:16:27;35.50;94.70
45735;DHT22;31446;49.632;8.328;2023-06-22T13:31:34;34.60;94.50
45735;DHT22;31446;49.632;8.328;2023-06-22T13:46:40;34.40;94.10
45735;DHT22;31446;49.632;8.328;2023-06-22T14:01:47;34.30;93.70
45735;DHT22;31446;49.632;8.328;2023-06-22T14:16:53;34.10;93.70
45735;DHT22;31446;49.632;8.328;2023-06-22T14:31:59;34.10;93.40
45735;DHT22;31446;49.632;8.328;2023-06-22T14:47:07;33.20;94.40
45735;DHT22;31446;49.632;8.328;2023-06-22T15:02:13;34.30;94.00
45735;DHT22;31446;49.632;8.328;2023-06-22T15:17:20;33.40;95.00
45735;DHT22;31446;49.632;8.328;2023-06-22T15:32:26;33.10;95.60
45735;DHT22;31446;49.632;8.328;2023-06-22T15:47:32;32.20;95.90
45735;DHT22;31446;49.632;8.328;2023-06-22T16:02:38;30.80;98.00
45735;DHT22;31446;49.632;8.328;2023-06-22T16:17:45;27.90;99.90
45735;DHT22;31446;49.632;8.328;2023-06-22T16:32:55;26.90;99.90
45735;DHT22;31446;49.632;8.328;2023-06-22T16:48:02;26.60;99.90
45735;DHT22;31446;49.632;8.328;2023-06-22T17:03:13;23.80;99.90
45735;DHT22;31446;49.632;8.328;2023-06-22T17:18:22;23.00;99.90
45735;DHT22;31446;49.632;8.328;2023-06-22T17:33:28;25.40;99.90
45735;DHT22;31446;49.632;8.328;2023-06-22T17:48:34;30.80;99.90
45735;DHT22;31446;49.632;8.328;2023-06-22T18:03:41;29.20;99.90
45735;DHT22;31446;49.632;8.328;2023-06-22T18:18:48;28.30;99.90
45735;DHT22;31446;49.632;8.328;2023-06-22T18:33:57;26.80;99.90
45735;DHT22;31446;49.632;8.328;2023-06-22T18:49:12;25.60;99.90
45735;DHT22;31446;49.632;8.328;2023-06-22T19:04:19;24.90;99.90
45735;DHT22;31446;49.632;8.328;2023-06-22T19:19:27;25.10;99.90
45735;DHT22;31446;49.632;8.328;2023-06-22T19:34:34;25.00;99.90
45735;DHT22;31446;49.632;8.328;2023-06-22T19:49:41;24.60;99.90
45735;DHT22;31446;49.632;8.328;2023-06-22T20:04:47;24.10;99.90
45735;DHT22;31446;49.632;8.328;2023-06-22T20:19:55;23.30;99.90
45735;DHT22;31446;49.632;8.328;2023-06-22T20:35:03;23.10;99.90
45735;DHT22;31446;49.632;8.328;2023-06-22T20:50:09;22.90;99.90
45735;DHT22;31446;49.632;8.328;2023-06-22T21:05:16;22.70;99.90
45735;DHT22;31446;49.632;8.328;2023-06-22T21:20:22;22.70;99.90
45735;DHT22;31446;49.632;8.328;2023-06-22T21:35:29;22.60;99.90
45735;DHT22;31446;49.632;8.328;2023-06-22T21:50:36;22.80;99.90
45735;DHT22;31446;49.632;8.328;2023-06-22T22:05:43;22.80;99.90
45735;DHT22;31446;49.632;8.328;2023-06-22T22:20:49;22.70;99.90
45735;DHT22;31446;49.632;8.328;2023-06-22T22:35:55;22.70;99.90
45735;DHT22;31446;49.632;8.328;2023-06-22T22:51:02;22.60;99.90
45735;DHT22;31446;49.632;8.328;2023-06-22T23:06:12;22.20;99.90
45735;DHT22;31446;49.632;8.328;2023-06-22T23:21:18;21.50;99.90
45735;DHT22;31446;49.632;8.328;2023-06-22T23:36:25;21.30;99.90
45735;DHT22;31446;49.632;8.328;2023-06-22T23:51:31;21.10;99.90
